Time,TemperatureF,DewpointF,PressureIn,WindDirection,WindDirectionDegrees,WindSpeedMPH,WindSpeedGustMPH,Humidity,HourlyPrecipIn,Conditions,Clouds,dailyrainin,SoftwareType,DateUTC
2013-01-24 00:02:00,42.2,40.6,30.12,SW,217,6.0,9.0,94,0.00,,---,0.00,VWS V14.01,2013-01-24 08:02:00,
2013-01-24 00:07:00,42.2,40.6,30.12,SW,221,0.0,9.0,94,0.00,,---,0.00,VWS V14.01,2013-01-24 08:07:00,
2013-01-24 00:12:00,42.2,40.3,30.12,SW,229,3.0,9.0,93,0.00,,---,0.00,VWS V14.01,2013-01-24 08:12:00,
2013-01-24 00:17:00,42.2,40.3,30.12,ESE,123,0.0,9.0,93,0.00,,---,0.00,VWS V14.01,2013-01-24 08:17:00,
2013-01-24 00:22:00,42.2,40.3,30.12,SSW,209,6.0,9.0,93,0.00,,---,0.00,VWS V14.01,2013-01-24 08:22:00,
2013-01-24 00:27:00,42.3,40.7,30.12,SW,222,0.0,9.0,94,0.00,,---,0.00,VWS V14.01,2013-01-24 08:27:00,
2013-01-24 00:32:00,42.2,40.6,30.13,SW,232,0.0,9.0,94,0.00,,---,0.00,VWS V14.01,2013-01-24 08:32:00,
2013-01-24 00:37:00,42.2,40.6,30.13,SW,228,3.0,9.0,94,0.00,,---,0.00,VWS V14.01,2013-01-24 08:37:00,
2013-01-24 00:42:00,42.2,40.6,30.14,WSW,237,1.0,9.0,94,0.00,,---,0.00,VWS V14.01,2013-01-24 08:42:00,
2013-01-24 00:48:00,42.2,40.6,30.14,SW,232,0.0,9.0,94,0.00,,---,0.00,VWS V14.01,2013-01-24 08:48:00,
2013-01-24 00:53:00,42.0,40.1,30.14,WSW,242,0.0,9.0,93,0.00,,---,0.00,VWS V14.01,2013-01-24 08:53:00,
2013-01-24 00:58:00,42.0,40.1,30.14,WSW,247,4.0,9.0,93,0.00,,---,0.00,VWS V14.01,2013-01-24 08:58:00,
2013-01-24 01:03:00,42.0,40.1,30.14,SSW,213,0.0,1.0,93,0.00,,---,0.00,VWS V14.01,2013-01-24 09:03:00,
2013-01-24 01:08:00,42.0,40.1,30.14,WSW,252,0.0,7.0,93,0.00,,---,0.00,VWS V14.01,2013-01-24 09:08:00,
2013-01-24 01:13:00,42.1,40.2,30.15,SW,214,0.0,7.0,93,0.00,,---,0.00,VWS V14.01,2013-01-24 09:13:00,
2013-01-24 01:18:00,42.1,40.2,30.15,WSW,246,0.0,7.0,93,0.00,,---,0.00,VWS V14.01,2013-01-24 09:18:00,
2013-01-24 01:23:00,42.1,40.2,30.15,WSW,246,0.0,7.0,93,0.00,,---,0.00,VWS V14.01,2013-01-24 09:23:00,
2013-01-24 01:28:00,42.2,40.3,30.15,South,175,0.0,7.0,93,0.00,,---,0.00,VWS V14.01,2013-01-24 09:28:00,
2013-01-24 01:33:00,42.2,40.3,30.15,South,191,0.0,0.0,93,0.00,,---,0.00,VWS V14.01,2013-01-24 09:33:00,
2013-01-24 01:38:00,42.2,40.3,30.15,NW,323,0.0,2.0,93,0.00,,---,0.00,VWS V14.01,2013-01-24 09:38:00,
2013-01-24 01:43:00,42.2,40.3,30.15,SE,134,0.0,2.0,93,0.00,,---,0.00,VWS V14.01,2013-01-24 09:43:00,
2013-01-24 01:48:00,42.2,40.3,30.15,SE,134,0.0,2.0,93,0.00,,---,0.00,VWS V14.01,2013-01-24 09:48:00,
2013-01-24 01:53:00,42.1,40.2,30.15,SE,134,0.0,2.0,93,0.00,,---,0.00,VWS V14.01,2013-01-24 09:53:00,
2013-01-24 01:59:00,42.1,40.0,30.16,SE,134,0.0,2.0,92,0.00,,---,0.00,VWS V14.01,2013-01-24 09:59:00,
2013-01-24 02:04:00,42.1,40.0,30.16,SE,128,0.0,2.0,92,0.00,,---,0.00,VWS V14.01,2013-01-24 10:04:00,
2013-01-24 02:09:00,42.1,40.0,30.16,South,169,3.0,5.0,92,0.00,,---,0.00,VWS V14.01,2013-01-24 10:09:00,
2013-01-24 02:14:00,42.1,40.0,30.16,SSW,201,0.0,5.0,92,0.00,,---,0.00,VWS V14.01,2013-01-24 10:14:00,
2013-01-24 02:19:00,42.1,40.0,30.16,WSW,254,2.0,5.0,92,0.00,,---,0.00,VWS V14.01,2013-01-24 10:19:00,
2013-01-24 02:24:00,42.1,40.0,30.17,SE,142,0.0,5.0,92,0.00,,---,0.00,VWS V14.01,2013-01-24 10:24:00,
2013-01-24 02:29:00,42.0,39.8,30.17,SE,146,0.0,5.0,92,0.00,,---,0.00,VWS V14.01,2013-01-24 10:29:00,
2013-01-24 02:34:00,42.0,39.8,30.17,SE,133,1.0,4.0,92,0.00,,---,0.00,VWS V14.01,2013-01-24 10:34:00,
2013-01-24 02:39:00,42.0,39.8,30.17,South,178,0.0,4.0,92,0.00,,---,0.00,VWS V14.01,2013-01-24 10:39:00,
2013-01-24 02:44:00,42.0,39.6,30.17,SSE,150,2.0,5.0,91,0.00,,---,0.00,VWS V14.01,2013-01-24 10:44:00,
2013-01-24 02:49:00,42.0,39.6,30.17,SE,132,0.0,5.0,91,0.00,,---,0.00,VWS V14.01,2013-01-24 10:49:00,
2013-01-24 02:54:00,42.0,39.6,30.17,SE,136,0.0,5.0,91,0.00,,---,0.00,VWS V14.01,2013-01-24 10:54:00,
2013-01-24 02:59:00,41.9,39.5,30.18,South,178,0.0,5.0,91,0.00,,---,0.00,VWS V14.01,2013-01-24 10:59:00,
2013-01-24 03:04:00,41.9,39.5,30.18,SE,142,0.0,0.0,91,0.00,,---,0.00,VWS V14.01,2013-01-24 11:04:00,
2013-01-24 03:09:00,41.9,39.5,30.18,South,173,1.0,1.0,91,0.00,,---,0.00,VWS V14.01,2013-01-24 11:09:00,
2013-01-24 03:14:00,41.9,39.5,30.18,SE,145,0.0,3.0,91,0.00,,---,0.00,VWS V14.01,2013-01-24 11:14:00,
2013-01-24 03:20:00,41.8,39.4,30.18,South,187,0.0,4.0,91,0.00,,---,0.00,VWS V14.01,2013-01-24 11:20:00,
2013-01-24 03:25:00,41.8,39.4,30.18,SSE,163,0.0,5.0,91,0.00,,---,0.00,VWS V14.01,2013-01-24 11:25:00,
2013-01-24 03:30:00,41.8,39.4,30.18,SW,226,0.0,5.0,91,0.00,,---,0.00,VWS V14.01,2013-01-24 11:30:00,
2013-01-24 03:35:00,41.7,39.3,30.18,SSW,192,0.0,3.0,91,0.00,,---,0.00,VWS V14.01,2013-01-24 11:35:00,
2013-01-24 03:40:00,41.7,39.3,30.18,SW,226,0.0,3.0,91,0.00,,---,0.00,VWS V14.01,2013-01-24 11:40:00,
2013-01-24 03:45:00,41.7,39.3,30.18,SW,222,0.0,3.0,91,0.00,,---,0.00,VWS V14.01,2013-01-24 11:45:00,
2013-01-24 03:50:00,41.6,39.2,30.18,SW,216,0.0,5.0,91,0.00,,---,0.00,VWS V14.01,2013-01-24 11:50:00,
2013-01-24 03:55:00,41.5,39.1,30.18,WSW,246,0.0,5.0,91,0.00,,---,0.00,VWS V14.01,2013-01-24 11:55:00,
2013-01-24 04:00:00,41.5,39.1,30.18,WSW,237,1.0,5.0,91,0.00,,---,0.00,VWS V14.01,2013-01-24 12:00:00,
2013-01-24 04:05:00,41.4,39.0,30.18,WSW,237,0.0,1.0,91,0.00,,---,0.00,VWS V14.01,2013-01-24 12:05:00,
2013-01-24 04:10:00,41.4,39.0,30.17,WSW,249,0.0,6.0,91,0.00,,---,0.00,VWS V14.01,2013-01-24 12:10:00,
2013-01-24 04:15:00,41.5,39.1,30.17,SW,227,3.0,6.0,91,0.00,,---,0.00,VWS V14.01,2013-01-24 12:15:00,
2013-01-24 04:20:00,41.4,39.0,30.17,SW,219,0.0,6.0,91,0.00,,---,0.00,VWS V14.01,2013-01-24 12:20:00,
2013-01-24 04:25:00,41.3,38.9,30.17,West,261,0.0,6.0,91,0.00,,---,0.00,VWS V14.01,2013-01-24 12:25:00,
2013-01-24 04:31:00,41.3,38.9,30.17,West,261,0.0,0.0,91,0.00,,---,0.00,VWS V14.01,2013-01-24 12:31:00,
2013-01-24 04:36:00,41.3,38.9,30.17,WSW,238,0.0,3.0,91,0.00,,---,0.00,VWS V14.01,2013-01-24 12:36:00,
2013-01-24 04:41:00,41.3,38.9,30.17,South,175,0.0,3.0,91,0.00,,---,0.00,VWS V14.01,2013-01-24 12:41:00,
2013-01-24 04:46:00,41.3,38.9,30.17,South,175,0.0,3.0,91,0.00,,---,0.00,VWS V14.01,2013-01-24 12:46:00,
2013-01-24 04:51:00,41.2,39.1,30.17,SSW,203,0.0,3.0,92,0.00,,---,0.00,VWS V14.01,2013-01-24 12:51:00,
2013-01-24 04:56:00,41.2,39.1,30.17,SSE,167,0.0,3.0,92,0.00,,---,0.00,VWS V14.01,2013-01-24 12:56:00,
2013-01-24 05:01:00,41.1,39.0,30.18,WSW,248,0.0,1.0,92,0.00,,---,0.00,VWS V14.01,2013-01-24 13:01:00,
2013-01-24 05:06:00,41.1,39.0,30.17,SW,224,0.0,3.0,92,0.00,,---,0.00,VWS V14.01,2013-01-24 13:06:00,
2013-01-24 05:11:00,41.1,38.7,30.18,SW,234,0.0,4.0,91,0.00,,---,0.00,VWS V14.01,2013-01-24 13:11:00,
2013-01-24 05:16:00,41.1,39.0,30.18,WSW,238,0.0,4.0,92,0.00,,---,0.00,VWS V14.01,2013-01-24 13:16:00,
2013-01-24 05:21:00,41.1,39.0,30.18,WSW,238,0.0,4.0,92,0.00,,---,0.00,VWS V14.01,2013-01-24 13:21:00,
2013-01-24 05:27:00,41.1,39.0,30.18,WSW,239,0.0,4.0,92,0.00,,---,0.00,VWS V14.01,2013-01-24 13:27:00,
2013-01-24 05:32:00,41.1,39.0,30.18,WSW,239,0.0,0.0,92,0.00,,---,0.00,VWS V14.01,2013-01-24 13:32:00,
2013-01-24 05:37:00,41.1,39.0,30.18,SSE,167,0.0,1.0,92,0.00,,---,0.00,VWS V14.01,2013-01-24 13:37:00,
2013-01-24 05:42:00,41.2,39.1,30.19,SSE,167,0.0,1.0,92,0.00,,---,0.00,VWS V14.01,2013-01-24 13:42:00,
2013-01-24 05:47:00,41.2,39.1,30.19,SSE,167,0.0,1.0,92,0.00,,---,0.00,VWS V14.01,2013-01-24 13:47:00,
2013-01-24 05:52:00,41.3,39.4,30.19,SSE,167,0.0,1.0,93,0.00,,---,0.00,VWS V14.01,2013-01-24 13:52:00,
2013-01-24 05:57:00,41.3,39.4,30.19,SSE,167,0.0,1.0,93,0.00,,---,0.00,VWS V14.01,2013-01-24 13:57:00,
2013-01-24 06:02:00,41.4,39.5,30.19,SSE,153,0.0,0.0,93,0.00,,---,0.00,VWS V14.01,2013-01-24 14:02:00,
2013-01-24 06:07:00,41.4,39.5,30.19,SSE,153,0.0,1.0,93,0.00,,---,0.00,VWS V14.01,2013-01-24 14:07:00,
2013-01-24 06:12:00,41.5,39.6,30.19,SSE,153,0.0,1.0,93,0.00,,---,0.00,VWS V14.01,2013-01-24 14:12:00,
2013-01-24 06:17:00,41.4,39.5,30.19,West,260,0.0,2.0,93,0.00,,---,0.00,VWS V14.01,2013-01-24 14:17:00,
2013-01-24 06:23:00,41.4,39.5,30.19,SSE,155,1.0,3.0,93,0.00,,---,0.00,VWS V14.01,2013-01-24 14:23:00,
2013-01-24 06:28:00,41.3,39.4,30.19,East,86,2.0,3.0,93,0.00,,---,0.00,VWS V14.01,2013-01-24 14:28:00,
2013-01-24 06:33:00,41.2,39.3,30.18,SSE,149,0.0,2.0,93,0.00,,---,0.00,VWS V14.01,2013-01-24 14:33:00,
2013-01-24 06:38:00,41.2,39.3,30.18,SSE,152,0.0,6.0,93,0.00,,---,0.00,VWS V14.01,2013-01-24 14:38:00,
2013-01-24 06:43:00,41.2,39.3,30.18,SSE,157,0.0,6.0,93,0.00,,---,0.00,VWS V14.01,2013-01-24 14:43:00,
2013-01-24 06:48:00,41.1,39.2,30.18,SE,134,2.0,6.0,93,0.00,,---,0.00,VWS V14.01,2013-01-24 14:48:00,
2013-01-24 06:53:00,41.1,39.2,30.18,SE,144,0.0,6.0,93,0.00,,---,0.00,VWS V14.01,2013-01-24 14:53:00,
2013-01-24 06:58:00,41.1,39.2,30.18,ESE,118,2.0,6.0,93,0.00,,---,0.00,VWS V14.01,2013-01-24 14:58:00,
2013-01-24 07:03:00,40.9,39.0,30.18,ESE,119,1.0,4.0,93,0.00,,---,0.00,VWS V14.01,2013-01-24 15:03:00,
2013-01-24 07:08:00,40.7,38.8,30.18,ESE,115,4.0,4.0,93,0.00,,---,0.00,VWS V14.01,2013-01-24 15:08:00,
2013-01-24 07:13:00,40.6,38.7,30.18,ESE,121,4.0,4.0,93,0.00,,---,0.00,VWS V14.01,2013-01-24 15:13:00,
2013-01-24 07:18:00,40.6,38.7,30.17,ESE,109,0.0,4.0,93,0.00,,---,0.00,VWS V14.01,2013-01-24 15:18:00,
2013-01-24 07:23:00,40.6,38.7,30.17,SE,141,0.0,4.0,93,0.00,,---,0.00,VWS V14.01,2013-01-24 15:23:00,
2013-01-24 07:29:00,40.5,38.6,30.17,ESE,106,0.0,4.0,93,0.00,,---,0.00,VWS V14.01,2013-01-24 15:29:00,
2013-01-24 07:34:00,40.6,38.7,30.17,ESE,105,3.0,3.0,93,0.00,,---,0.00,VWS V14.01,2013-01-24 15:34:00,
2013-01-24 07:39:00,40.6,38.7,30.17,East,95,3.0,3.0,93,0.00,,---,0.00,VWS V14.01,2013-01-24 15:39:00,
2013-01-24 07:44:00,40.6,38.7,30.18,ESE,123,1.0,4.0,93,0.00,,---,0.00,VWS V14.01,2013-01-24 15:44:00,
2013-01-24 07:49:00,40.6,38.5,30.18,ESE,107,0.0,4.0,92,0.00,,---,0.00,VWS V14.01,2013-01-24 15:49:00,
2013-01-24 07:54:00,40.6,38.5,30.18,East,99,0.0,4.0,92,0.00,,---,0.00,VWS V14.01,2013-01-24 15:54:00,
2013-01-24 07:59:00,40.6,38.7,30.18,East,100,0.0,4.0,93,0.00,,---,0.00,VWS V14.01,2013-01-24 15:59:00,
2013-01-24 08:04:00,40.6,38.7,30.18,ESE,102,0.0,2.0,93,0.00,,---,0.00,VWS V14.01,2013-01-24 16:04:00,
2013-01-24 08:09:00,40.7,38.8,30.19,ESE,102,0.0,2.0,93,0.00,,---,0.00,VWS V14.01,2013-01-24 16:09:00,
2013-01-24 08:14:00,40.7,38.8,30.18,ESE,107,2.0,4.0,93,0.00,,---,0.00,VWS V14.01,2013-01-24 16:14:00,
2013-01-24 08:19:00,40.7,38.6,30.18,SE,128,5.0,5.0,92,0.00,,---,0.00,VWS V14.01,2013-01-24 16:19:00,
2013-01-24 08:24:00,40.7,38.6,30.17,SE,125,2.0,5.0,92,0.00,,---,0.00,VWS V14.01,2013-01-24 16:24:00,
2013-01-24 08:29:00,40.7,38.6,30.17,ENE,76,3.0,5.0,92,0.00,,---,0.00,VWS V14.01,2013-01-24 16:29:00,
2013-01-24 08:34:00,40.8,38.4,30.17,ESE,112,3.0,5.0,91,0.00,,---,0.00,VWS V14.01,2013-01-24 16:34:00,
2013-01-24 08:40:00,41.0,38.3,30.17,SE,138,0.0,9.0,90,0.00,,---,0.00,VWS V14.01,2013-01-24 16:40:00,
2013-01-24 08:45:00,41.2,38.2,30.17,East,92,2.0,9.0,89,0.00,,---,0.00,VWS V14.01,2013-01-24 16:45:00,
2013-01-24 08:50:00,41.5,38.2,30.17,South,169,0.0,9.0,88,0.00,,---,0.00,VWS V14.01,2013-01-24 16:50:00,
2013-01-24 08:55:00,41.9,38.6,30.17,SSE,151,3.0,9.0,88,0.00,,---,0.00,VWS V14.01,2013-01-24 16:55:00,
2013-01-24 09:00:00,42.2,38.6,30.17,SSE,150,0.0,9.0,87,0.00,,---,0.00,VWS V14.01,2013-01-24 17:00:00,
2013-01-24 09:05:00,42.4,38.5,30.18,SSE,158,0.0,6.0,86,0.00,,---,0.00,VWS V14.01,2013-01-24 17:05:00,
2013-01-24 09:10:00,42.5,38.3,30.17,SSE,152,1.0,6.0,85,0.00,,---,0.00,VWS V14.01,2013-01-24 17:10:00,
2013-01-24 09:15:00,42.5,38.0,30.17,SSE,147,0.0,6.0,84,0.00,,---,0.00,VWS V14.01,2013-01-24 17:15:00,
2013-01-24 09:20:00,42.7,38.2,30.17,SSE,163,0.0,6.0,84,0.00,,---,0.00,VWS V14.01,2013-01-24 17:20:00,
2013-01-24 09:25:00,43.0,38.5,30.17,SSE,163,0.0,6.0,84,0.00,,---,0.00,VWS V14.01,2013-01-24 17:25:00,
2013-01-24 09:30:00,43.3,38.2,30.17,SSE,163,0.0,0.0,82,0.00,,---,0.00,VWS V14.01,2013-01-24 17:30:00,
2013-01-24 09:35:00,43.8,38.7,30.17,SSE,162,3.0,3.0,82,0.00,,---,0.00,VWS V14.01,2013-01-24 17:35:00,
2013-01-24 09:41:00,43.6,37.8,30.17,East,101,0.0,4.0,80,0.00,,---,0.00,VWS V14.01,2013-01-24 17:41:00,
2013-01-24 09:46:00,43.5,37.8,30.17,SSE,161,0.0,4.0,80,0.00,,---,0.00,VWS V14.01,2013-01-24 17:46:00,
2013-01-24 09:51:00,43.3,37.6,30.17,SE,141,2.0,5.0,80,0.00,,---,0.00,VWS V14.01,2013-01-24 17:51:00,
2013-01-24 09:56:00,43.1,37.7,30.17,ESE,118,1.0,5.0,81,0.00,,---,0.00,VWS V14.01,2013-01-24 17:56:00,
2013-01-24 10:01:00,43.1,37.7,30.17,SE,144,0.0,3.0,81,0.00,,---,0.00,VWS V14.01,2013-01-24 18:01:00,
2013-01-24 10:06:00,43.4,38.0,30.17,SSE,155,0.0,4.0,81,0.00,,---,0.00,VWS V14.01,2013-01-24 18:06:00,
2013-01-24 10:11:00,43.8,38.4,30.16,SSE,155,0.0,4.0,81,0.00,,---,0.00,VWS V14.01,2013-01-24 18:11:00,
2013-01-24 10:16:00,43.8,38.0,30.16,ESE,119,0.0,5.0,80,0.00,,---,0.00,VWS V14.01,2013-01-24 18:16:00,
2013-01-24 10:21:00,44.0,38.2,30.15,SSE,149,2.0,5.0,80,0.00,,---,0.00,VWS V14.01,2013-01-24 18:21:00,
2013-01-24 10:26:00,44.1,38.3,30.15,SSE,149,0.0,5.0,80,0.00,,---,0.00,VWS V14.01,2013-01-24 18:26:00,
2013-01-24 10:32:00,44.2,38.8,30.16,WSW,237,0.0,0.0,81,0.00,,---,0.00,VWS V14.01,2013-01-24 18:32:00,
2013-01-24 10:37:00,44.3,38.8,30.16,WSW,237,0.0,1.0,81,0.00,,---,0.00,VWS V14.01,2013-01-24 18:37:00,
2013-01-24 10:42:00,44.4,38.6,30.16,WSW,237,0.0,1.0,80,0.00,,---,0.00,VWS V14.01,2013-01-24 18:42:00,
2013-01-24 10:47:00,44.5,39.0,30.16,SSE,152,0.0,1.0,81,0.00,,---,0.00,VWS V14.01,2013-01-24 18:47:00,
2013-01-24 10:52:00,44.6,38.8,30.15,SSE,152,0.0,2.0,80,0.00,,---,0.00,VWS V14.01,2013-01-24 18:52:00,
2013-01-24 10:57:00,44.7,38.6,30.15,SE,137,0.0,2.0,79,0.00,,---,0.00,VWS V14.01,2013-01-24 18:57:00,
2013-01-24 11:02:00,45.0,38.9,30.15,SW,217,0.0,2.0,79,0.00,,---,0.00,VWS V14.01,2013-01-24 19:02:00,
2013-01-24 11:07:00,45.1,39.3,30.15,SW,217,0.0,2.0,80,0.00,,---,0.00,VWS V14.01,2013-01-24 19:07:00,
2013-01-24 11:12:00,45.2,38.8,30.15,South,178,0.0,2.0,78,0.00,,---,0.00,VWS V14.01,2013-01-24 19:12:00,
2013-01-24 11:17:00,45.3,38.9,30.15,SW,230,0.0,4.0,78,0.00,,---,0.00,VWS V14.01,2013-01-24 19:17:00,
2013-01-24 11:22:00,45.4,39.3,30.14,SW,230,0.0,4.0,79,0.00,,---,0.00,VWS V14.01,2013-01-24 19:22:00,
2013-01-24 11:27:00,45.2,38.4,30.14,SSE,150,1.0,4.0,77,0.00,,---,0.00,VWS V14.01,2013-01-24 19:27:00,
2013-01-24 11:32:00,45.1,39.0,30.14,SW,229,1.0,3.0,79,0.00,,---,0.00,VWS V14.01,2013-01-24 19:32:00,
2013-01-24 11:38:00,45.2,39.4,30.14,SW,219,0.0,3.0,80,0.00,,---,0.00,VWS V14.01,2013-01-24 19:38:00,
2013-01-24 11:43:00,45.3,39.5,30.14,SW,219,1.0,3.0,80,0.00,,---,0.00,VWS V14.01,2013-01-24 19:43:00,
2013-01-24 11:48:00,45.2,39.4,30.13,SW,215,0.0,3.0,80,0.00,,---,0.00,VWS V14.01,2013-01-24 19:48:00,
2013-01-24 11:53:00,45.0,39.2,30.13,SW,215,0.0,3.0,80,0.00,,---,0.00,VWS V14.01,2013-01-24 19:53:00,
2013-01-24 11:58:00,45.0,39.8,30.13,SW,215,0.0,3.0,82,0.00,,---,0.00,VWS V14.01,2013-01-24 19:58:00,
2013-01-24 12:03:00,44.9,40.1,30.12,SW,215,0.0,0.0,83,0.00,,---,0.00,VWS V14.01,2013-01-24 20:03:00,
2013-01-24 12:08:00,44.9,40.4,30.12,SW,215,0.0,0.0,84,0.00,,---,0.00,VWS V14.01,2013-01-24 20:08:00,
2013-01-24 12:13:00,44.8,39.3,30.12,East,96,0.0,3.0,81,0.00,,---,0.00,VWS V14.01,2013-01-24 20:13:00,
2013-01-24 12:18:00,44.9,39.4,30.12,SE,146,0.0,3.0,81,0.00,,---,0.00,VWS V14.01,2013-01-24 20:18:00,
2013-01-24 12:23:00,45.0,39.5,30.11,SE,146,0.0,3.0,81,0.00,,---,0.00,VWS V14.01,2013-01-24 20:23:00,
2013-01-24 12:28:00,45.2,39.1,30.11,SE,133,0.0,4.0,79,0.00,,---,0.00,VWS V14.01,2013-01-24 20:28:00,
2013-01-24 12:33:00,45.2,39.1,30.11,SE,133,0.0,2.0,79,0.00,,---,0.00,VWS V14.01,2013-01-24 20:33:00,
2013-01-24 12:38:00,45.2,39.4,30.11,ESE,111,2.0,3.0,80,0.00,,---,0.00,VWS V14.01,2013-01-24 20:38:00,
2013-01-24 12:43:00,45.1,39.3,30.11,ESE,110,1.0,4.0,80,0.00,,---,0.00,VWS V14.01,2013-01-24 20:43:00,
2013-01-24 12:49:00,45.3,39.5,30.10,ESE,114,2.0,4.0,80,0.00,,---,0.00,VWS V14.01,2013-01-24 20:49:00,
2013-01-24 12:54:00,45.4,39.6,30.10,ESE,117,0.0,4.0,80,0.00,,---,0.00,VWS V14.01,2013-01-24 20:54:00,
2013-01-24 12:59:00,45.5,39.4,30.10,ESE,119,1.0,4.0,79,0.00,,---,0.00,VWS V14.01,2013-01-24 20:59:00,
2013-01-24 13:04:00,45.4,39.3,30.10,ESE,112,0.0,1.0,79,0.00,,---,0.00,VWS V14.01,2013-01-24 21:04:00,
2013-01-24 13:09:00,45.6,38.8,30.10,South,184,0.0,2.0,77,0.00,,---,0.00,VWS V14.01,2013-01-24 21:09:00,
2013-01-24 13:14:00,45.8,38.3,30.09,SW,229,0.0,5.0,75,0.00,,---,0.00,VWS V14.01,2013-01-24 21:14:00,
2013-01-24 13:19:00,45.9,38.8,30.09,WSW,239,0.0,5.0,76,0.00,,---,0.00,VWS V14.01,2013-01-24 21:19:00,
2013-01-24 13:24:00,45.9,38.8,30.09,ESE,117,1.0,5.0,76,0.00,,---,0.00,VWS V14.01,2013-01-24 21:24:00,
2013-01-24 13:29:00,45.7,38.2,30.08,East,96,0.0,5.0,75,0.00,,---,0.00,VWS V14.01,2013-01-24 21:29:00,
2013-01-24 13:34:00,45.4,38.3,30.08,ESE,111,0.0,3.0,76,0.00,,---,0.00,VWS V14.01,2013-01-24 21:34:00,
2013-01-24 13:39:00,45.3,38.5,30.08,ESE,110,0.0,3.0,77,0.00,,---,0.00,VWS V14.01,2013-01-24 21:39:00,
2013-01-24 13:44:00,45.3,38.2,30.08,ESE,116,1.0,3.0,76,0.00,,---,0.00,VWS V14.01,2013-01-24 21:44:00,
2013-01-24 13:49:00,45.3,38.2,30.08,ESE,103,2.0,4.0,76,0.00,,---,0.00,VWS V14.01,2013-01-24 21:49:00,
2013-01-24 13:54:00,45.4,38.3,30.08,SE,140,0.0,4.0,76,0.00,,---,0.00,VWS V14.01,2013-01-24 21:54:00,
2013-01-24 13:59:00,45.3,38.2,30.08,ESE,120,1.0,4.0,76,0.00,,---,0.00,VWS V14.01,2013-01-24 21:59:00,
2013-01-24 14:05:00,45.3,38.5,30.08,East,91,1.0,3.0,77,0.00,,---,0.00,VWS V14.01,2013-01-24 22:05:00,
2013-01-24 14:10:00,45.3,38.5,30.08,SSE,159,0.0,6.0,77,0.00,,---,0.00,VWS V14.01,2013-01-24 22:10:00,
2013-01-24 14:15:00,45.4,38.3,30.07,ESE,121,2.0,6.0,76,0.00,,---,0.00,VWS V14.01,2013-01-24 22:15:00,
2013-01-24 14:20:00,45.5,38.4,30.07,East,95,0.0,6.0,76,0.00,,---,0.00,VWS V14.01,2013-01-24 22:20:00,
2013-01-24 14:25:00,45.5,38.4,30.07,ESE,107,0.0,6.0,76,0.00,,---,0.00,VWS V14.01,2013-01-24 22:25:00,
2013-01-24 14:30:00,45.5,37.7,30.07,ESE,116,0.0,6.0,74,0.00,,---,0.00,VWS V14.01,2013-01-24 22:30:00,
2013-01-24 14:35:00,45.4,37.6,30.07,SE,146,0.0,4.0,74,0.00,,---,0.00,VWS V14.01,2013-01-24 22:35:00,
2013-01-24 14:40:00,45.4,37.6,30.07,SE,126,0.0,4.0,74,0.00,,---,0.00,VWS V14.01,2013-01-24 22:40:00,
2013-01-24 14:45:00,45.5,37.4,30.06,SSE,148,3.0,4.0,73,0.00,,---,0.00,VWS V14.01,2013-01-24 22:45:00,
2013-01-24 14:50:00,45.5,37.4,30.06,SE,125,0.0,4.0,73,0.00,,---,0.00,VWS V14.01,2013-01-24 22:50:00,
2013-01-24 14:55:00,45.6,37.5,30.06,SE,138,0.0,4.0,73,0.00,,---,0.00,VWS V14.01,2013-01-24 22:55:00,
2013-01-24 15:00:00,45.7,37.5,30.06,SE,139,0.0,0.0,73,0.00,,---,0.00,VWS V14.01,2013-01-24 23:00:00,
2013-01-24 15:06:00,45.8,38.0,30.06,SE,138,0.0,0.0,74,0.00,,---,0.00,VWS V14.01,2013-01-24 23:06:00,
2013-01-24 15:11:00,45.9,37.4,30.06,SE,139,0.0,1.0,72,0.00,,---,0.00,VWS V14.01,2013-01-24 23:11:00,
2013-01-24 15:16:00,45.9,37.4,30.05,ESE,104,1.0,3.0,72,0.00,,---,0.00,VWS V14.01,2013-01-24 23:16:00,
2013-01-24 15:21:00,45.8,37.7,30.06,SSW,194,0.0,3.0,73,0.00,,---,0.00,VWS V14.01,2013-01-24 23:21:00,
2013-01-24 15:26:00,45.8,37.3,30.06,SSW,194,1.0,3.0,72,0.00,,---,0.00,VWS V14.01,2013-01-24 23:26:00,
2013-01-24 15:31:00,45.7,37.2,30.06,SSE,163,0.0,0.0,72,0.00,,---,0.00,VWS V14.01,2013-01-24 23:31:00,
2013-01-24 15:36:00,45.7,37.5,30.06,SSE,163,0.0,1.0,73,0.00,,---,0.00,VWS V14.01,2013-01-24 23:36:00,
2013-01-24 15:41:00,45.8,38.0,30.06,West,263,1.0,5.0,74,0.00,,---,0.00,VWS V14.01,2013-01-24 23:41:00,
2013-01-24 15:46:00,45.6,38.8,30.06,SW,223,0.0,6.0,77,0.00,,---,0.00,VWS V14.01,2013-01-24 23:46:00,
2013-01-24 15:51:00,45.2,38.4,30.06,SW,215,0.0,6.0,77,0.00,,---,0.00,VWS V14.01,2013-01-24 23:51:00,
2013-01-24 15:56:00,45.0,38.6,30.07,SW,221,3.0,6.0,78,0.00,,---,0.00,VWS V14.01,2013-01-24 23:56:00,
2013-01-24 16:01:00,44.7,38.6,30.06,WSW,241,2.0,5.0,79,0.00,,---,0.00,VWS V14.01,2013-01-25 00:01:00,
2013-01-24 16:06:00,44.5,38.4,30.06,SW,232,0.0,6.0,79,0.00,,---,0.00,VWS V14.01,2013-01-25 00:06:00,
2013-01-24 16:11:00,44.3,38.2,30.07,WSW,237,5.0,9.0,79,0.00,,---,0.00,VWS V14.01,2013-01-25 00:11:00,
2013-01-24 16:16:00,44.2,38.4,30.07,SW,218,3.0,11.0,80,0.00,,---,0.00,VWS V14.01,2013-01-25 00:16:00,
2013-01-24 16:22:00,44.2,38.4,30.07,SW,226,0.0,11.0,80,0.00,,---,0.00,VWS V14.01,2013-01-25 00:22:00,
2013-01-24 16:27:00,44.1,38.7,30.06,WSW,250,0.0,11.0,81,0.00,,---,0.00,VWS V14.01,2013-01-25 00:27:00,
2013-01-24 16:32:00,44.0,38.9,30.07,WSW,250,0.0,2.0,82,0.01,,---,0.01,VWS V14.01,2013-01-25 00:32:00,
2013-01-24 16:37:00,43.9,39.1,30.07,WSW,237,0.0,3.0,83,0.01,,---,0.01,VWS V14.01,2013-01-25 00:37:00,
2013-01-24 16:42:00,43.8,39.3,30.07,SSW,204,0.0,3.0,84,0.01,,---,0.01,VWS V14.01,2013-01-25 00:42:00,
2013-01-24 16:47:00,43.6,39.4,30.07,SSW,203,0.0,3.0,85,0.02,,---,0.02,VWS V14.01,2013-01-25 00:47:00,
2013-01-24 16:52:00,43.4,39.5,30.07,SSW,203,0.0,3.0,86,0.03,,---,0.03,VWS V14.01,2013-01-25 00:52:00,
2013-01-24 16:57:00,43.3,40.0,30.08,SSW,204,0.0,3.0,88,0.03,,---,0.03,VWS V14.01,2013-01-25 00:57:00,
2013-01-24 17:02:00,43.3,40.0,30.08,SSW,204,0.0,2.0,88,0.04,,---,0.04,VWS V14.01,2013-01-25 01:02:00,
2013-01-24 17:07:00,43.0,40.0,30.09,WSW,253,0.0,3.0,89,0.04,,---,0.04,VWS V14.01,2013-01-25 01:07:00,
2013-01-24 17:12:00,42.9,40.2,30.09,SW,215,0.0,3.0,90,0.04,,---,0.04,VWS V14.01,2013-01-25 01:12:00,
2013-01-24 17:17:00,42.7,40.0,30.09,SW,215,0.0,3.0,90,0.05,,---,0.05,VWS V14.01,2013-01-25 01:17:00,
2013-01-24 17:22:00,42.6,39.9,30.08,SW,215,0.0,3.0,90,0.05,,---,0.05,VWS V14.01,2013-01-25 01:22:00,
2013-01-24 17:27:00,42.5,39.8,30.08,SW,215,0.0,3.0,90,0.06,,---,0.06,VWS V14.01,2013-01-25 01:27:00,
2013-01-24 17:32:00,42.3,39.9,30.07,SSE,160,0.0,3.0,91,0.06,,---,0.06,VWS V14.01,2013-01-25 01:32:00,
2013-01-24 17:38:00,42.2,39.8,30.06,SE,133,1.0,5.0,91,0.07,,---,0.07,VWS V14.01,2013-01-25 01:38:00,
2013-01-24 17:43:00,42.1,40.0,30.07,ESE,116,1.0,5.0,92,0.07,,---,0.07,VWS V14.01,2013-01-25 01:43:00,
2013-01-24 17:48:00,42.1,40.0,30.08,SSE,148,0.0,5.0,92,0.07,,---,0.07,VWS V14.01,2013-01-25 01:48:00,
2013-01-24 17:53:00,42.0,39.8,30.08,ESE,112,0.0,5.0,92,0.07,,---,0.07,VWS V14.01,2013-01-25 01:53:00,
2013-01-24 17:58:00,42.0,40.1,30.08,ESE,112,0.0,5.0,93,0.08,,---,0.08,VWS V14.01,2013-01-25 01:58:00,
2013-01-24 18:03:00,42.0,40.1,30.08,East,91,0.0,3.0,93,0.04,,---,0.08,VWS V14.01,2013-01-25 02:03:00,
2013-01-24 18:08:00,42.1,40.2,30.08,ENE,61,1.0,3.0,93,0.05,,---,0.09,VWS V14.01,2013-01-25 02:08:00,
2013-01-24 18:13:00,42.1,40.2,30.07,ENE,59,0.0,3.0,93,0.05,,---,0.09,VWS V14.01,2013-01-25 02:13:00,
2013-01-24 18:18:00,42.1,40.5,30.08,East,86,0.0,4.0,94,0.05,,---,0.09,VWS V14.01,2013-01-25 02:18:00,
2013-01-24 18:23:00,42.0,40.4,30.07,ESE,109,1.0,5.0,94,0.05,,---,0.09,VWS V14.01,2013-01-25 02:23:00,
2013-01-24 18:28:00,42.0,40.4,30.07,ESE,107,3.0,5.0,94,0.05,,---,0.09,VWS V14.01,2013-01-25 02:28:00,
2013-01-24 18:33:00,41.9,40.3,30.07,ESE,119,1.0,4.0,94,0.04,,---,0.10,VWS V14.01,2013-01-25 02:33:00,
2013-01-24 18:38:00,41.8,40.2,30.07,East,86,0.0,5.0,94,0.04,,---,0.10,VWS V14.01,2013-01-25 02:38:00,
2013-01-24 18:43:00,41.8,40.2,30.07,ESE,115,4.0,5.0,94,0.04,,---,0.10,VWS V14.01,2013-01-25 02:43:00,
2013-01-24 18:49:00,41.8,40.2,30.07,ESE,115,4.0,6.0,94,0.04,,---,0.10,VWS V14.01,2013-01-25 02:49:00,
2013-01-24 18:54:00,42.0,40.4,30.07,SE,125,6.0,7.0,94,0.04,,---,0.10,VWS V14.01,2013-01-25 02:54:00,
2013-01-24 18:59:00,42.1,40.5,30.07,East,97,0.0,9.0,94,0.05,,---,0.11,VWS V14.01,2013-01-25 02:59:00,
2013-01-24 19:04:00,42.2,40.6,30.07,ESE,107,4.0,6.0,94,0.03,,---,0.11,VWS V14.01,2013-01-25 03:04:00,
2013-01-24 19:09:00,42.2,40.6,30.07,ESE,117,0.0,6.0,94,0.03,,---,0.11,VWS V14.01,2013-01-25 03:09:00,
2013-01-24 19:14:00,42.2,40.6,30.07,ESE,111,1.0,7.0,94,0.03,,---,0.11,VWS V14.01,2013-01-25 03:14:00,
2013-01-24 19:19:00,42.3,40.7,30.07,SE,140,0.0,7.0,94,0.03,,---,0.11,VWS V14.01,2013-01-25 03:19:00,
2013-01-24 19:24:00,42.3,41.0,30.07,East,91,1.0,7.0,95,0.03,,---,0.11,VWS V14.01,2013-01-25 03:24:00,
2013-01-24 19:29:00,42.4,41.1,30.07,ENE,57,3.0,7.0,95,0.03,,---,0.11,VWS V14.01,2013-01-25 03:29:00,
2013-01-24 19:34:00,42.4,41.1,30.07,ESE,108,1.0,5.0,95,0.02,,---,0.12,VWS V14.01,2013-01-25 03:34:00,
2013-01-24 19:39:00,42.4,41.1,30.07,SE,129,0.0,5.0,95,0.02,,---,0.12,VWS V14.01,2013-01-25 03:39:00,
2013-01-24 19:44:00,42.4,41.1,30.06,ESE,107,0.0,5.0,95,0.02,,---,0.12,VWS V14.01,2013-01-25 03:44:00,
2013-01-24 19:49:00,42.5,41.2,30.06,SE,124,2.0,5.0,95,0.02,,---,0.12,VWS V14.01,2013-01-25 03:49:00,
2013-01-24 19:54:00,42.5,41.2,30.06,ESE,121,1.0,5.0,95,0.02,,---,0.12,VWS V14.01,2013-01-25 03:54:00,
2013-01-24 19:59:00,42.6,41.3,30.06,ESE,109,3.0,5.0,95,0.02,,---,0.12,VWS V14.01,2013-01-25 03:59:00,
2013-01-24 20:04:00,42.5,41.2,30.06,SE,145,1.0,6.0,95,0.01,,---,0.12,VWS V14.01,2013-01-25 04:04:00,
2013-01-24 20:09:00,42.5,41.4,30.06,ESE,113,3.0,6.0,96,0.01,,---,0.12,VWS V14.01,2013-01-25 04:09:00,
2013-01-24 20:15:00,42.8,41.7,30.06,ESE,109,0.0,6.0,96,0.01,,---,0.12,VWS V14.01,2013-01-25 04:15:00,
2013-01-24 20:20:00,42.7,41.6,30.06,ESE,110,0.0,6.0,96,0.01,,---,0.12,VWS V14.01,2013-01-25 04:20:00,
2013-01-24 20:25:00,42.6,41.5,30.06,SE,130,0.0,6.0,96,0.01,,---,0.12,VWS V14.01,2013-01-25 04:25:00,
2013-01-24 20:30:00,42.5,41.4,30.06,ESE,117,0.0,6.0,96,0.01,,---,0.12,VWS V14.01,2013-01-25 04:30:00,
2013-01-24 20:35:00,42.4,42.4,30.06,ESE,112,0.0,3.0,100,0.01,,---,0.12,VWS V14.01,2013-01-25 04:35:00,
2013-01-24 20:40:00,42.4,41.3,30.05,ESE,111,3.0,4.0,96,0.01,,---,0.12,VWS V14.01,2013-01-25 04:40:00,
2013-01-24 20:45:00,42.4,41.3,30.05,East,98,0.0,4.0,96,0.01,,---,0.12,VWS V14.01,2013-01-25 04:45:00,
2013-01-24 20:50:00,42.4,41.3,30.05,East,98,0.0,4.0,96,0.01,,---,0.12,VWS V14.01,2013-01-25 04:50:00,
2013-01-24 20:55:00,42.4,41.3,30.06,SE,144,1.0,4.0,96,0.01,,---,0.12,VWS V14.01,2013-01-25 04:55:00,
2013-01-24 21:01:00,42.4,41.3,30.05,SE,126,1.0,1.0,96,0.00,,---,0.12,VWS V14.01,2013-01-25 05:01:00,
2013-01-24 21:02:00,42.4,41.3,30.05,SE,127,0.0,2.0,96,0.00,,---,0.12,VWS V14.01,2013-01-25 05:02:00,
2013-01-24 21:03:00,42.3,41.2,30.05,SE,127,0.0,2.0,96,0.00,,---,0.12,VWS V14.01,2013-01-25 05:03:00,
2013-01-24 21:08:00,42.3,41.2,30.05,ESE,109,0.0,5.0,96,0.00,,---,0.12,VWS V14.01,2013-01-25 05:08:00,
2013-01-24 21:13:00,42.2,41.1,30.05,ESE,111,0.0,5.0,96,0.00,,---,0.12,VWS V14.01,2013-01-25 05:13:00,
2013-01-24 21:18:00,42.2,41.1,30.05,SE,136,0.0,5.0,96,0.00,,---,0.12,VWS V14.01,2013-01-25 05:18:00,
2013-01-24 21:23:00,42.2,41.1,30.05,SSE,150,1.0,5.0,96,0.00,,---,0.12,VWS V14.01,2013-01-25 05:23:00,
2013-01-24 21:28:00,42.2,41.1,30.05,ESE,102,0.0,5.0,96,0.01,,---,0.13,VWS V14.01,2013-01-25 05:28:00,
2013-01-24 21:33:00,42.2,41.1,30.05,ESE,102,1.0,4.0,96,0.01,,---,0.13,VWS V14.01,2013-01-25 05:33:00,
2013-01-24 21:38:00,42.1,41.0,30.05,ESE,105,1.0,4.0,96,0.01,,---,0.13,VWS V14.01,2013-01-25 05:38:00,
2013-01-24 21:43:00,42.2,41.1,30.05,ESE,110,3.0,4.0,96,0.01,,---,0.13,VWS V14.01,2013-01-25 05:43:00,
2013-01-24 21:49:00,42.2,41.1,30.05,SE,128,2.0,4.0,96,0.01,,---,0.13,VWS V14.01,2013-01-25 05:49:00,
2013-01-24 21:54:00,42.2,41.1,30.05,ESE,110,1.0,4.0,96,0.01,,---,0.13,VWS V14.01,2013-01-25 05:54:00,
2013-01-24 21:59:00,42.2,41.1,30.05,ESE,113,0.0,4.0,96,0.01,,---,0.13,VWS V14.01,2013-01-25 05:59:00,
2013-01-24 22:04:00,42.3,41.2,30.05,ESE,113,0.0,3.0,96,0.01,,---,0.13,VWS V14.01,2013-01-25 06:04:00,
2013-01-24 22:09:00,42.3,41.2,30.05,ESE,113,0.0,3.0,96,0.01,,---,0.13,VWS V14.01,2013-01-25 06:09:00,
2013-01-24 22:14:00,42.3,41.2,30.04,ESE,113,0.0,3.0,96,0.01,,---,0.13,VWS V14.01,2013-01-25 06:14:00,
2013-01-24 22:19:00,42.3,41.2,30.04,ESE,111,0.0,3.0,96,0.01,,---,0.13,VWS V14.01,2013-01-25 06:19:00,
2013-01-24 22:24:00,42.4,41.3,30.04,ESE,112,0.0,3.0,96,0.01,,---,0.13,VWS V14.01,2013-01-25 06:24:00,
2013-01-24 22:29:00,42.4,41.3,30.04,ESE,112,1.0,3.0,96,0.01,,---,0.13,VWS V14.01,2013-01-25 06:29:00,
2013-01-24 22:34:00,42.3,41.2,30.04,ESE,114,2.0,4.0,96,0.00,,---,0.13,VWS V14.01,2013-01-25 06:34:00,
2013-01-24 22:39:00,42.3,41.2,30.04,ESE,115,0.0,4.0,96,0.00,,---,0.13,VWS V14.01,2013-01-25 06:39:00,
2013-01-24 22:44:00,42.3,41.2,30.04,ESE,122,1.0,5.0,96,0.00,,---,0.13,VWS V14.01,2013-01-25 06:44:00,
2013-01-24 22:49:00,42.2,41.1,30.04,ESE,109,3.0,5.0,96,0.00,,---,0.13,VWS V14.01,2013-01-25 06:49:00,
2013-01-24 22:54:00,42.2,41.1,30.04,ESE,117,0.0,5.0,96,0.00,,---,0.13,VWS V14.01,2013-01-25 06:54:00,
2013-01-24 23:00:00,42.1,41.0,30.04,ESE,111,1.0,5.0,96,0.00,,---,0.13,VWS V14.01,2013-01-25 07:00:00,
2013-01-24 23:05:00,42.1,41.0,30.04,ESE,105,0.0,4.0,96,0.00,,---,0.13,VWS V14.01,2013-01-25 07:05:00,
2013-01-24 23:10:00,42.1,41.0,30.04,SE,140,2.0,4.0,96,0.00,,---,0.13,VWS V14.01,2013-01-25 07:10:00,
2013-01-24 23:15:00,42.0,40.9,30.04,East,99,1.0,4.0,96,0.00,,---,0.13,VWS V14.01,2013-01-25 07:15:00,
2013-01-24 23:20:00,42.0,40.9,30.04,East,95,0.0,4.0,96,0.00,,---,0.13,VWS V14.01,2013-01-25 07:20:00,
2013-01-24 23:25:00,42.0,40.9,30.04,ESE,103,1.0,4.0,96,0.00,,---,0.13,VWS V14.01,2013-01-25 07:25:00,
2013-01-24 23:30:00,42.0,40.9,30.04,ESE,107,0.0,4.0,96,0.00,,---,0.13,VWS V14.01,2013-01-25 07:30:00,
2013-01-24 23:35:00,42.1,41.0,30.04,ESE,113,3.0,4.0,96,0.00,,---,0.13,VWS V14.01,2013-01-25 07:35:00,
2013-01-24 23:40:00,42.1,41.0,30.04,ESE,108,3.0,5.0,96,0.01,,---,0.14,VWS V14.01,2013-01-25 07:40:00,
2013-01-24 23:45:00,42.2,41.1,30.04,East,95,3.0,5.0,96,0.01,,---,0.14,VWS V14.01,2013-01-25 07:45:00,
2013-01-24 23:50:00,42.3,41.2,30.04,SE,136,1.0,5.0,96,0.01,,---,0.14,VWS V14.01,2013-01-25 07:50:00,
2013-01-24 23:55:00,42.3,41.2,30.04,SE,128,2.0,5.0,96,0.02,,---,0.15,VWS V14.01,2013-01-25 07:55:00,